Terminal Aerodrome Forecast
Issued by NWS

Home | Current Version | Previous Version | Text Only | Print | Product List | Glossary On
Versions: 1 2 3 4 5 6 7 8 9 10 11 12 13 14 15 16 17 18 19 20 21 22 23 24 25 26 27 28
000
FTUS41 KPBZ 022326
TAFAGC
TAF
KAGC 022326Z 0300/0324 36005KT P6SM VCSH BKN040
     FM030400 VRB04KT 5SM BR VCSH OVC020
     FM031200 VRB04KT P6SM BKN015
     FM031400 VRB03KT P6SM BKN025
     FM031900 28005KT P6SM BKN040=

USA.gov is the U.S. government's official web portal to all federal, state and local government web resources and services.